KMDD

Midland Airpark

Midland, Texas, USA
METAR KMDD 221855Z AUTO 32010G17KT 10SM 17/M01 A2986 RMK AO2 T01691009
Observed Flight Rules
Jan-22 @ 18:55 UTC (27 minutes ago)
Wind Visibility
320° at 10 knots
 Gusting to 17 knots
10 miles
Temperatures Readings
Current 17°C / 63°F
Dewpoint -1°C / 30°F
Humidity 30%
Altimeter 29.86" Hg
Pressure 1011.22 hPa
Elevation 854
METAR KMDD 221855Z AUTO 32010G17KT 10SM 17/M01 A2986 RMK AO2 T01691009
Observed Flight Rules
Jan-22 @ 18:55 UTC
(27 minutes ago)
Wind Visibility
320° at 10 knots
 Gusting to 17 knots
10 miles
Temperature Dewpoint
17°C / 63°F -1°C / 30°F
Humidity Altimeter Pressure
30% 29.86" Hg 1011.22 hPa